Time;durP1;ratioP1;P1;durP2;ratioP2;P2;SDS_P1;SDS_P2;PMS_P1;PMS_P2;Temp;Humidity;BMP_temperature;BMP_pressure;BME280_temperature;BME280_humidity;BME280_pressure;Samples;Min_cycle;Max_cycle;Signal;HPM_P1;HPM_P2
2021/12/16 00:08:19;;;;;;;;;;;3.00;99.90;;;;;;5061549;28;19931;-73
2021/12/16 00:10:56;;;;;;;;;;;3.00;99.90;;;;;;5052261;28;19921;-77
2021/12/16 00:30:51;;;;;;;;;;;2.80;99.90;;;;;;5065734;28;19925;-60
2021/12/16 00:33:18;;;;;;;;;;;2.80;99.90;;;;;;5053145;28;20395;-61
2021/12/16 00:35:47;;;;;;;;;;;2.80;99.90;;;;;;5060982;28;19947;-62
2021/12/16 00:38:15;;;;;;;;;;;2.90;99.90;;;;;;5074086;28;19920;-60
2021/12/16 00:40:43;;;;;;;;;;;2.80;99.90;;;;;;5064265;28;19928;-65
2021/12/16 00:43:18;;;;;;;;;;;2.70;99.90;;;;;;5052289;28;19925;-63
2021/12/16 00:54:11;;;;;;;;;;;2.70;99.90;;;;;;5068122;28;19920;-64
2021/12/16 00:56:41;;;;;;;;;;;2.70;99.90;;;;;;5088565;27;19928;-61
2021/12/16 00:59:11;;;;;;;;;;;2.70;99.90;;;;;;5069047;28;19920;-62
2021/12/16 01:02:01;;;;;;;;;;;2.60;99.90;;;;;;5068404;28;19936;-68
2021/12/16 01:05:08;;;;;;;;;;;2.60;99.90;;;;;;5076535;28;20406;-64
2021/12/16 01:57:06;;;;;;;;;;;2.40;99.90;;;;;;5055290;28;19942;-78
2021/12/16 01:59:36;;;;;;;;;;;2.40;99.90;;;;;;5080250;28;19932;-69
2021/12/16 02:02:20;;;;;;;;;;;2.40;99.90;;;;;;5070148;28;19921;-73
2021/12/16 02:08:38;;;;;;;;;;;2.30;99.90;;;;;;4989524;28;19925;-67
2021/12/16 02:10:47;;;;;;;;;;;2.30;99.90;;;;;;5021290;28;19924;-76
2021/12/16 02:33:13;;;;;;;;;;;2.20;99.90;;;;;;5035850;28;19995;-87
2021/12/16 02:35:47;;;;;;;;;;;2.20;99.90;;;;;;5061687;28;19925;-85
2021/12/16 02:38:16;;;;;;;;;;;2.10;99.90;;;;;;5064788;28;19921;-79
2021/12/16 02:40:46;;;;;;;;;;;2.10;99.90;;;;;;5088783;28;19920;-73
2021/12/16 02:48:43;;;;;;;;;;;2.00;99.90;;;;;;5083807;28;19924;-81
2021/12/16 02:51:18;;;;;;;;;;;2.10;99.90;;;;;;5079895;28;19921;-73
2021/12/16 02:53:47;;;;;;;;;;;2.00;99.90;;;;;;5057863;28;20434;-85
2021/12/16 02:56:16;;;;;;;;;;;2.00;99.90;;;;;;5066973;28;19921;-61
2021/12/16 02:58:46;;;;;;;;;;;2.00;99.90;;;;;;5049374;28;19928;-62
2021/12/16 03:01:18;;;;;;;;;;;1.90;99.90;;;;;;5058838;28;19920;-62
2021/12/16 03:03:46;;;;;;;;;;;1.90;99.90;;;;;;5056570;28;19925;-65
2021/12/16 03:06:13;;;;;;;;;;;1.90;99.90;;;;;;5076231;28;20311;-61
2021/12/16 03:08:41;;;;;;;;;;;1.90;99.90;;;;;;5051271;28;20288;-61
2021/12/16 03:11:33;;;;;;;;;;;1.90;99.90;;;;;;5051150;28;19928;-60
2021/12/16 03:14:19;;;;;;;;;;;1.80;99.90;;;;;;5068352;28;19931;-61
2021/12/16 03:21:51;;;;;;;;;;;1.80;99.90;;;;;;5066334;28;19932;-61
2021/12/16 03:28:18;;;;;;;;;;;1.80;99.90;;;;;;5053158;28;20365;-60
2021/12/16 03:35:39;;;;;;;;;;;1.80;99.90;;;;;;5054669;28;19927;-71
2021/12/16 03:38:09;;;;;;;;;;;1.70;99.90;;;;;;5096763;28;19920;-61
2021/12/16 03:40:38;;;;;;;;;;;1.80;99.90;;;;;;5056659;28;19920;-63
2021/12/16 03:43:12;;;;;;;;;;;1.80;99.90;;;;;;5072686;28;20396;-61
2021/12/16 03:48:43;;;;;;;;;;;1.80;99.90;;;;;;5069039;28;19925;-61
2021/12/16 03:51:31;;;;;;;;;;;1.70;99.90;;;;;;5073832;28;19932;-61
2021/12/16 03:54:06;;;;;;;;;;;1.70;99.90;;;;;;5059679;28;19920;-68
2021/12/16 03:56:37;;;;;;;;;;;1.80;99.90;;;;;;5060211;28;20287;-62
2021/12/16 03:59:17;;;;;;;;;;;1.80;99.90;;;;;;5058544;28;19921;-64
2021/12/16 04:01:55;;;;;;;;;;;1.90;99.90;;;;;;5066953;28;19920;-62
2021/12/16 04:04:29;;;;;;;;;;;1.90;99.90;;;;;;5078962;28;19921;-62
2021/12/16 04:06:59;;;;;;;;;;;2.00;99.90;;;;;;5067504;28;19920;-61
2021/12/16 04:09:30;;;;;;;;;;;2.10;99.90;;;;;;5060739;28;19920;-60
2021/12/16 04:12:20;;;;;;;;;;;2.10;99.90;;;;;;5053512;28;19928;-61
2021/12/16 04:14:50;;;;;;;;;;;2.20;99.90;;;;;;5055058;28;19928;-61
2021/12/16 04:17:24;;;;;;;;;;;2.30;99.90;;;;;;5070723;28;19924;-63
2021/12/16 04:19:58;;;;;;;;;;;2.30;99.90;;;;;;5091852;28;19921;-66
2021/12/16 04:22:31;;;;;;;;;;;2.40;99.90;;;;;;5054911;28;19921;-68
2021/12/16 04:25:03;;;;;;;;;;;2.40;99.90;;;;;;5091253;28;19943;-62
2021/12/16 04:27:33;;;;;;;;;;;2.40;99.90;;;;;;5095272;28;19932;-60
2021/12/16 04:30:03;;;;;;;;;;;2.40;99.90;;;;;;5070007;28;19987;-63
2021/12/16 04:32:31;;;;;;;;;;;2.40;99.90;;;;;;5093053;27;20364;-61
2021/12/16 04:35:00;;;;;;;;;;;2.40;99.90;;;;;;5052367;28;20392;-61
2021/12/16 04:37:28;;;;;;;;;;;2.40;99.90;;;;;;5060877;28;19921;-61
2021/12/16 04:39:58;;;;;;;;;;;2.40;99.90;;;;;;5051724;28;19920;-61
2021/12/16 04:42:26;;;;;;;;;;;2.40;99.90;;;;;;5052102;28;19920;-61
2021/12/16 04:44:55;;;;;;;;;;;2.30;99.90;;;;;;5053892;28;20403;-60
2021/12/16 04:47:23;;;;;;;;;;;2.30;99.90;;;;;;5037244;28;19924;-61
2021/12/16 04:49:51;;;;;;;;;;;2.20;99.90;;;;;;5057699;28;19920;-70
2021/12/16 04:52:19;;;;;;;;;;;2.20;99.90;;;;;;5068433;28;20308;-64
2021/12/16 04:54:47;;;;;;;;;;;2.20;99.90;;;;;;5051692;28;19927;-68
2021/12/16 04:57:18;;;;;;;;;;;2.10;99.90;;;;;;5061513;28;20287;-73
2021/12/16 04:59:47;;;;;;;;;;;2.10;99.90;;;;;;5068454;28;19920;-67
2021/12/16 05:02:17;;;;;;;;;;;2.00;99.90;;;;;;5053299;28;19921;-61
2021/12/16 05:05:06;;;;;;;;;;;2.00;99.90;;;;;;5052038;28;19928;-60
2021/12/16 05:07:34;;;;;;;;;;;1.90;99.90;;;;;;5053873;28;20377;-64
2021/12/16 05:10:22;;;;;;;;;;;1.90;99.90;;;;;;5055453;28;19963;-70
2021/12/16 05:13:04;;;;;;;;;;;1.80;99.90;;;;;;5069958;28;19920;-66
2021/12/16 05:15:35;;;;;;;;;;;1.80;99.90;;;;;;5061563;28;19924;-81
2021/12/16 05:18:06;;;;;;;;;;;1.80;99.90;;;;;;5085198;28;19920;-67
2021/12/16 05:20:39;;;;;;;;;;;1.80;99.90;;;;;;5068109;28;19920;-73
2021/12/16 05:28:30;;;;;;;;;;;1.70;99.90;;;;;;5088576;28;19920;-73
2021/12/16 05:30:59;;;;;;;;;;;1.80;99.90;;;;;;5084432;28;20444;-76
2021/12/16 05:33:28;;;;;;;;;;;1.80;99.90;;;;;;5063161;28;19921;-74
2021/12/16 05:35:57;;;;;;;;;;;1.90;99.90;;;;;;5051238;28;20082;-64
2021/12/16 05:38:27;;;;;;;;;;;1.90;99.90;;;;;;5054496;28;20296;-61
2021/12/16 05:41:00;;;;;;;;;;;2.10;99.90;;;;;;5084579;28;19927;-78
2021/12/16 05:43:35;;;;;;;;;;;2.10;99.90;;;;;;5061120;28;19963;-69
2021/12/16 05:46:03;;;;;;;;;;;2.20;99.90;;;;;;5050270;28;20372;-62
2021/12/16 05:48:32;;;;;;;;;;;2.30;99.90;;;;;;5048977;28;19921;-78
2021/12/16 05:51:03;;;;;;;;;;;2.30;99.90;;;;;;5075286;28;19929;-72
2021/12/16 05:53:30;;;;;;;;;;;2.40;99.90;;;;;;5070234;28;19921;-61
2021/12/16 05:55:59;;;;;;;;;;;2.50;99.90;;;;;;5057141;28;20320;-77
2021/12/16 05:58:31;;;;;;;;;;;2.50;99.90;;;;;;5086536;28;19924;-64
2021/12/16 06:01:02;;;;;;;;;;;2.60;99.90;;;;;;5059563;28;20402;-69
2021/12/16 06:03:32;;;;;;;;;;;2.50;99.90;;;;;;5080839;28;19928;-64
2021/12/16 06:06:01;;;;;;;;;;;2.60;99.90;;;;;;5052439;28;19920;-65
2021/12/16 06:08:29;;;;;;;;;;;2.60;99.90;;;;;;5078575;28;19920;-74
2021/12/16 06:13:56;;;;;;;;;;;2.50;99.90;;;;;;5060684;28;20288;-60
2021/12/16 06:27:34;;;;;;;;;;;2.30;99.90;;;;;;5058853;28;19920;-67
2021/12/16 06:30:04;;;;;;;;;;;2.30;99.90;;;;;;5050135;28;19921;-63
2021/12/16 06:32:32;;;;;;;;;;;2.40;99.90;;;;;;5072185;28;19921;-62
2021/12/16 06:35:00;;;;;;;;;;;2.30;99.90;;;;;;5081382;28;19924;-66
2021/12/16 06:37:27;;;;;;;;;;;2.30;99.90;;;;;;5050046;28;19963;-72
2021/12/16 06:39:55;;;;;;;;;;;2.30;99.90;;;;;;5047020;28;19920;-70
2021/12/16 06:42:47;;;;;;;;;;;2.30;99.90;;;;;;5042460;28;19928;-77
2021/12/16 06:45:21;;;;;;;;;;;2.30;99.90;;;;;;5066795;28;19924;-62
2021/12/16 06:47:58;;;;;;;;;;;2.30;99.90;;;;;;5075965;28;19925;-65
2021/12/16 06:53:48;;;;;;;;;;;2.30;99.90;;;;;;5010106;28;19929;-61
2021/12/16 06:56:24;;;;;;;;;;;2.30;99.90;;;;;;5067887;28;20447;-68
2021/12/16 07:02:06;;;;;;;;;;;2.40;99.90;;;;;;5071608;28;19928;-68
2021/12/16 07:04:34;;;;;;;;;;;2.50;99.90;;;;;;5052130;28;19924;-64
2021/12/16 07:07:06;;;;;;;;;;;2.60;99.90;;;;;;5052156;28;19944;-73
2021/12/16 07:09:34;;;;;;;;;;;2.60;99.90;;;;;;5051915;28;19921;-66
2021/12/16 07:12:02;;;;;;;;;;;2.70;99.90;;;;;;5062754;28;19928;-70
2021/12/16 07:14:36;;;;;;;;;;;2.80;99.90;;;;;;5062808;28;19939;-71
2021/12/16 07:17:09;;;;;;;;;;;2.90;99.90;;;;;;5052028;28;19921;-67
2021/12/16 07:19:41;;;;;;;;;;;3.00;99.90;;;;;;5067436;28;19932;-68
2021/12/16 07:22:09;;;;;;;;;;;3.10;99.90;;;;;;5073093;28;20391;-74
2021/12/16 07:24:37;;;;;;;;;;;3.10;99.90;;;;;;5057799;28;20364;-62
2021/12/16 07:27:06;;;;;;;;;;;3.20;99.90;;;;;;5051168;28;19932;-60
2021/12/16 07:29:33;;;;;;;;;;;3.30;99.90;;;;;;5054560;28;19921;-66
2021/12/16 07:32:01;;;;;;;;;;;3.40;99.90;;;;;;5073473;28;19920;-78
2021/12/16 07:34:29;;;;;;;;;;;3.40;99.90;;;;;;5059733;28;20292;-62
2021/12/16 07:36:59;;;;;;;;;;;3.50;99.90;;;;;;5051591;28;20280;-61
2021/12/16 07:39:37;;;;;;;;;;;3.50;99.90;;;;;;5069615;28;19931;-60
2021/12/16 07:42:06;;;;;;;;;;;3.60;99.90;;;;;;5073836;28;19925;-71
2021/12/16 07:44:34;;;;;;;;;;;3.70;99.90;;;;;;5061864;28;19925;-77
2021/12/16 07:47:04;;;;;;;;;;;3.70;99.90;;;;;;5049891;28;19920;-66
2021/12/16 07:49:34;;;;;;;;;;;3.80;99.90;;;;;;5052734;28;19928;-75
2021/12/16 07:52:04;;;;;;;;;;;3.80;99.90;;;;;;5049217;28;20415;-62
2021/12/16 07:54:32;;;;;;;;;;;3.90;99.90;;;;;;5057921;28;19920;-61
2021/12/16 07:57:00;;;;;;;;;;;4.00;99.90;;;;;;5081013;28;19928;-71
2021/12/16 07:59:29;;;;;;;;;;;4.10;99.90;;;;;;5049568;28;20380;-61
2021/12/16 08:01:58;;;;;;;;;;;4.10;99.90;;;;;;5045360;28;19921;-71
2021/12/16 08:04:31;;;;;;;;;;;4.10;99.90;;;;;;5055341;28;19920;-75
2021/12/16 08:07:03;;;;;;;;;;;4.20;99.90;;;;;;5044794;28;19935;-68
2021/12/16 08:09:35;;;;;;;;;;;4.20;99.90;;;;;;5049352;28;19921;-68
2021/12/16 08:12:03;;;;;;;;;;;4.30;99.90;;;;;;5048982;28;19927;-60
2021/12/16 08:14:31;;;;;;;;;;;4.30;99.90;;;;;;5058155;28;19920;-69
2021/12/16 08:16:59;;;;;;;;;;;4.40;99.90;;;;;;5050722;28;19925;-62
2021/12/16 08:19:29;;;;;;;;;;;4.40;99.90;;;;;;5050465;28;19920;-62
2021/12/16 08:21:59;;;;;;;;;;;4.40;99.90;;;;;;5032612;28;20300;-66
2021/12/16 08:24:27;;;;;;;;;;;4.50;99.90;;;;;;5061250;28;19920;-63
2021/12/16 08:26:55;;;;;;;;;;;4.50;99.90;;;;;;5050412;28;20303;-63
2021/12/16 08:29:24;;;;;;;;;;;4.60;99.90;;;;;;5048607;28;19924;-64
2021/12/16 08:31:52;;;;;;;;;;;4.60;99.90;;;;;;5050684;28;19932;-83
2021/12/16 08:34:20;;;;;;;;;;;4.60;99.90;;;;;;5061075;28;19920;-63
2021/12/16 08:36:47;;;;;;;;;;;4.70;99.90;;;;;;5082433;28;20288;-64
2021/12/16 08:39:16;;;;;;;;;;;4.70;99.90;;;;;;5052986;28;20284;-64
2021/12/16 08:41:53;;;;;;;;;;;4.70;99.90;;;;;;5046432;28;19928;-67
2021/12/16 08:44:21;;;;;;;;;;;4.80;99.90;;;;;;5057584;28;20262;-65
2021/12/16 08:46:54;;;;;;;;;;;4.80;99.90;;;;;;5046615;28;19928;-64
2021/12/16 08:49:21;;;;;;;;;;;4.90;99.90;;;;;;5057053;28;20471;-82
2021/12/16 08:51:50;;;;;;;;;;;4.90;99.90;;;;;;5050266;28;19928;-82
2021/12/16 08:54:18;;;;;;;;;;;4.90;99.90;;;;;;5076701;28;20272;-78
2021/12/16 08:56:47;;;;;;;;;;;4.90;99.90;;;;;;5048582;28;20300;-76
2021/12/16 08:59:14;;;;;;;;;;;5.00;99.90;;;;;;5057798;28;20859;-69
2021/12/16 09:01:44;;;;;;;;;;;5.00;99.90;;;;;;5050077;28;19921;-84
2021/12/16 09:04:12;;;;;;;;;;;5.00;99.90;;;;;;5062336;28;20263;-84
2021/12/16 09:06:39;;;;;;;;;;;5.10;99.90;;;;;;5049849;28;20312;-84
2021/12/16 09:09:07;;;;;;;;;;;5.10;99.90;;;;;;5058067;28;19927;-81
2021/12/16 09:11:41;;;;;;;;;;;5.20;99.90;;;;;;5049765;28;19935;-79
2021/12/16 09:14:08;;;;;;;;;;;5.20;99.90;;;;;;5062437;28;19920;-81
2021/12/16 09:16:37;;;;;;;;;;;5.30;99.90;;;;;;5050012;28;19927;-69
2021/12/16 09:19:06;;;;;;;;;;;5.30;99.90;;;;;;5058241;28;19929;-63
2021/12/16 09:21:35;;;;;;;;;;;5.40;99.90;;;;;;5049355;28;19921;-83
2021/12/16 09:24:03;;;;;;;;;;;5.40;99.90;;;;;;5061120;28;19920;-71
2021/12/16 09:26:30;;;;;;;;;;;5.40;99.90;;;;;;5050262;28;19921;-85
2021/12/16 09:28:58;;;;;;;;;;;5.50;99.90;;;;;;5058860;28;19936;-81
2021/12/16 09:31:27;;;;;;;;;;;5.50;99.90;;;;;;5049332;28;20307;-80
2021/12/16 09:33:56;;;;;;;;;;;5.60;99.90;;;;;;5059522;28;20410;-83
2021/12/16 09:36:25;;;;;;;;;;;5.60;99.90;;;;;;5051415;28;19931;-82
2021/12/16 09:38:53;;;;;;;;;;;5.60;99.90;;;;;;5059185;28;20424;-79
2021/12/16 09:41:21;;;;;;;;;;;5.70;99.90;;;;;;5049172;28;19931;-81
2021/12/16 09:43:49;;;;;;;;;;;5.70;99.90;;;;;;5058737;28;20166;-84
2021/12/16 09:46:19;;;;;;;;;;;5.80;99.90;;;;;;5065464;28;19931;-83
2021/12/16 09:48:47;;;;;;;;;;;5.80;99.90;;;;;;5059477;28;19921;-82
2021/12/16 09:51:20;;;;;;;;;;;5.90;99.90;;;;;;5048810;28;19925;-68
2021/12/16 09:53:52;;;;;;;;;;;6.00;99.90;;;;;;5058600;28;19920;-69
2021/12/16 09:56:22;;;;;;;;;;;6.00;99.90;;;;;;5051372;28;19924;-62
2021/12/16 09:58:51;;;;;;;;;;;6.10;99.90;;;;;;5059918;28;20308;-60
2021/12/16 10:01:19;;;;;;;;;;;6.10;99.90;;;;;;5049412;28;19931;-67
2021/12/16 10:03:47;;;;;;;;;;;6.10;99.90;;;;;;5090020;28;20785;-65
2021/12/16 10:06:17;;;;;;;;;;;6.20;99.90;;;;;;5053719;28;19924;-80
2021/12/16 10:08:46;;;;;;;;;;;6.30;99.90;;;;;;5060071;28;19924;-81
2021/12/16 10:11:15;;;;;;;;;;;6.30;99.90;;;;;;5048455;28;19929;-77
2021/12/16 10:14:00;;;;;;;;;;;6.30;99.90;;;;;;5057283;28;20097;-71
2021/12/16 10:19:16;;;;;;;;;;;6.40;99.90;;;;;;5060894;28;19925;-80
2021/12/16 10:21:45;;;;;;;;;;;6.50;99.90;;;;;;5048268;28;19921;-76
2021/12/16 10:24:22;;;;;;;;;;;6.50;99.90;;;;;;5060925;28;19928;-74
2021/12/16 10:27:10;;;;;;;;;;;6.60;99.90;;;;;;5049890;28;19932;-60
2021/12/16 10:29:49;;;;;;;;;;;6.60;99.90;;;;;;5048365;28;19932;-69
2021/12/16 10:32:34;;;;;;;;;;;6.60;99.90;;;;;;5048434;28;19928;-60
2021/12/16 10:35:05;;;;;;;;;;;6.70;99.90;;;;;;5044580;28;19939;-59
2021/12/16 10:37:35;;;;;;;;;;;6.70;99.90;;;;;;5050873;28;19924;-61
2021/12/16 10:40:22;;;;;;;;;;;6.80;99.90;;;;;;5061477;28;19928;-79
2021/12/16 10:42:50;;;;;;;;;;;6.80;99.90;;;;;;5052655;28;19925;-81
2021/12/16 10:45:25;;;;;;;;;;;6.90;99.90;;;;;;5052582;28;19925;-78
2021/12/16 10:48:11;;;;;;;;;;;6.90;99.90;;;;;;5058974;28;19920;-81
2021/12/16 10:50:50;;;;;;;;;;;7.00;99.90;;;;;;5056654;28;19928;-72
2021/12/16 10:53:36;;;;;;;;;;;7.00;99.90;;;;;;5053108;28;19928;-64
2021/12/16 10:56:04;;;;;;;;;;;7.00;99.90;;;;;;5050847;28;20269;-68
2021/12/16 10:58:52;;;;;;;;;;;7.10;99.90;;;;;;5063900;28;19928;-64
2021/12/16 11:01:34;;;;;;;;;;;7.10;99.90;;;;;;5052355;28;19921;-63
2021/12/16 11:04:10;;;;;;;;;;;7.20;99.90;;;;;;5053315;28;19920;-61
2021/12/16 11:06:40;;;;;;;;;;;7.20;99.90;;;;;;5052025;28;19920;-69
2021/12/16 11:09:22;;;;;;;;;;;7.20;99.90;;;;;;5066575;28;20425;-62
2021/12/16 11:12:08;;;;;;;;;;;7.30;99.90;;;;;;5052022;28;19927;-67
2021/12/16 11:14:37;;;;;;;;;;;7.30;99.90;;;;;;5053722;28;19925;-71
2021/12/16 11:17:06;;;;;;;;;;;7.30;99.90;;;;;;5052068;28;19921;-61
2021/12/16 11:19:40;;;;;;;;;;;7.40;99.90;;;;;;5083972;28;19927;-63
2021/12/16 11:22:08;;;;;;;;;;;7.40;99.90;;;;;;5051388;28;20245;-63
2021/12/16 11:24:36;;;;;;;;;;;7.50;99.90;;;;;;5053674;28;19931;-65
2021/12/16 11:27:21;;;;;;;;;;;7.50;99.90;;;;;;5050079;28;19927;-66
2021/12/16 11:29:48;;;;;;;;;;;7.60;99.90;;;;;;5051571;28;20076;-61
2021/12/16 11:32:54;;;;;;;;;;;7.60;99.90;;;;;;5080475;28;19936;-61
2021/12/16 11:35:27;;;;;;;;;;;7.60;99.90;;;;;;5009106;28;20495;-61
2021/12/16 11:37:56;;;;;;;;;;;7.70;99.90;;;;;;5018913;28;19924;-62
2021/12/16 11:40:24;;;;;;;;;;;7.80;99.90;;;;;;5049794;28;19925;-61
2021/12/16 11:43:05;;;;;;;;;;;7.80;99.90;;;;;;5052022;28;19943;-62
2021/12/16 11:45:39;;;;;;;;;;;7.80;99.90;;;;;;5051076;28;19927;-60
2021/12/16 11:48:07;;;;;;;;;;;7.80;99.90;;;;;;5050673;28;19924;-61
2021/12/16 11:50:40;;;;;;;;;;;7.90;99.90;;;;;;5082096;27;19921;-60
2021/12/16 11:53:09;;;;;;;;;;;7.90;99.90;;;;;;5054316;28;20360;-63
2021/12/16 11:55:37;;;;;;;;;;;7.90;99.90;;;;;;5050610;28;19924;-61
2021/12/16 11:58:06;;;;;;;;;;;7.90;99.90;;;;;;5051585;28;19927;-61
2021/12/16 12:00:36;;;;;;;;;;;8.00;99.90;;;;;;5051028;28;19920;-60
2021/12/16 12:03:08;;;;;;;;;;;8.00;99.90;;;;;;5053205;28;19921;-67
2021/12/16 12:05:44;;;;;;;;;;;8.00;99.90;;;;;;5066078;28;20042;-61
2021/12/16 12:08:12;;;;;;;;;;;8.10;99.90;;;;;;5051745;28;19920;-65
2021/12/16 12:10:59;;;;;;;;;;;8.10;99.90;;;;;;5051241;28;19920;-61
2021/12/16 12:13:28;;;;;;;;;;;8.10;99.90;;;;;;5055341;28;20406;-61
2021/12/16 12:16:08;;;;;;;;;;;8.10;99.90;;;;;;5050414;28;19920;-64
2021/12/16 12:18:43;;;;;;;;;;;8.10;99.90;;;;;;5052418;28;19925;-70
2021/12/16 12:21:34;;;;;;;;;;;8.10;99.90;;;;;;5050476;28;19921;-62
2021/12/16 12:24:06;;;;;;;;;;;8.20;99.90;;;;;;5051427;28;20380;-61
2021/12/16 12:26:36;;;;;;;;;;;8.20;99.90;;;;;;5050187;28;20442;-62
2021/12/16 12:29:06;;;;;;;;;;;8.20;99.90;;;;;;5052800;28;19920;-60
2021/12/16 12:31:35;;;;;;;;;;;8.30;99.90;;;;;;5050573;28;20300;-61
2021/12/16 12:34:02;;;;;;;;;;;8.30;99.90;;;;;;5056039;28;19921;-60
2021/12/16 12:36:30;;;;;;;;;;;8.30;99.90;;;;;;5049829;28;19927;-65
2021/12/16 12:38:59;;;;;;;;;;;8.30;99.90;;;;;;5085274;27;19931;-60
2021/12/16 12:41:27;;;;;;;;;;;8.40;99.90;;;;;;5048712;28;19925;-60
2021/12/16 12:44:04;;;;;;;;;;;8.40;99.90;;;;;;5056034;28;19927;-60
2021/12/16 12:46:36;;;;;;;;;;;8.40;99.90;;;;;;5050175;28;19928;-66
2021/12/16 12:49:06;;;;;;;;;;;8.50;99.90;;;;;;5053163;28;20276;-59
2021/12/16 12:51:36;;;;;;;;;;;8.50;99.90;;;;;;5049979;28;19943;-61
2021/12/16 12:54:33;;;;;;;;;;;8.60;99.90;;;;;;5055274;28;20376;-60
2021/12/16 12:57:18;;;;;;;;;;;8.60;99.90;;;;;;5043789;28;19921;-69
2021/12/16 12:59:46;;;;;;;;;;;8.70;99.90;;;;;;5060177;28;20395;-66
2021/12/16 13:02:19;;;;;;;;;;;8.70;99.90;;;;;;5068445;28;19927;-66
2021/12/16 13:04:57;;;;;;;;;;;8.70;99.90;;;;;;5102036;28;19924;-67
2021/12/16 13:07:43;;;;;;;;;;;8.70;99.90;;;;;;5069360;28;19927;-72
2021/12/16 13:10:10;;;;;;;;;;;8.80;99.90;;;;;;5069718;28;19995;-67
2021/12/16 13:15:43;;;;;;;;;;;8.80;99.90;;;;;;5069130;28;19921;-80
2021/12/16 13:23:33;;;;;;;;;;;8.90;99.90;;;;;;5067810;28;20617;-73
2021/12/16 13:29:03;;;;;;;;;;;8.90;99.90;;;;;;5069291;28;20304;-71
2021/12/16 13:31:48;;;;;;;;;;;9.00;99.90;;;;;;5064782;28;19928;-75
2021/12/16 13:34:26;;;;;;;;;;;9.00;99.90;;;;;;5059078;28;20288;-63
2021/12/16 13:36:57;;;;;;;;;;;9.00;99.90;;;;;;5057696;28;19928;-80
2021/12/16 13:39:27;;;;;;;;;;;9.10;99.90;;;;;;5052400;28;19925;-80
2021/12/16 13:41:56;;;;;;;;;;;9.10;99.90;;;;;;5049948;28;20552;-80
2021/12/16 13:44:43;;;;;;;;;;;9.10;99.90;;;;;;5064348;28;19931;-80
2021/12/16 14:10:09;;;;;;;;;;;9.30;99.90;;;;;;5065124;28;19921;-62
2021/12/16 14:14:08;;;;;;;;;;;9.30;99.90;;;;;;5066952;28;20376;-60
2021/12/16 14:16:40;;;;;;;;;;;9.30;99.90;;;;;;5068335;28;19927;-60
2021/12/16 14:24:49;;;;;;;;;;;9.40;99.90;;;;;;5068337;28;20534;-68
2021/12/16 14:31:07;;;;;;;;;;;9.40;99.90;;;;;;5068067;28;20426;-66
2021/12/16 14:47:02;;;;;;;;;;;9.40;99.90;;;;;;5068425;28;19935;-65
2021/12/16 14:49:32;;;;;;;;;;;9.40;99.90;;;;;;5066194;28;19928;-64
2021/12/16 14:52:00;;;;;;;;;;;9.30;99.90;;;;;;5068218;28;19928;-63
2021/12/16 14:54:27;;;;;;;;;;;9.30;99.90;;;;;;5068009;28;19927;-71
2021/12/16 14:56:58;;;;;;;;;;;9.30;99.90;;;;;;5067951;28;20363;-60
2021/12/16 14:59:27;;;;;;;;;;;9.30;99.90;;;;;;5067990;28;19927;-60
2021/12/16 15:01:58;;;;;;;;;;;9.30;99.90;;;;;;5068218;28;20292;-60
2021/12/16 15:04:28;;;;;;;;;;;9.30;99.90;;;;;;5061421;28;19931;-60
2021/12/16 15:07:02;;;;;;;;;;;9.30;99.90;;;;;;5068392;28;19927;-60
2021/12/16 15:09:33;;;;;;;;;;;9.30;99.90;;;;;;5067605;28;19920;-76
2021/12/16 15:32:23;;;;;;;;;;;9.30;99.90;;;;;;5071467;28;19931;-60
2021/12/16 15:45:10;;;;;;;;;;;9.10;99.90;;;;;;5071074;28;20295;-60
2021/12/16 15:47:42;;;;;;;;;;;9.10;99.90;;;;;;5068479;28;19924;-60
2021/12/16 15:50:11;;;;;;;;;;;9.10;99.90;;;;;;5050864;28;19931;-60
2021/12/16 15:52:40;;;;;;;;;;;9.00;99.90;;;;;;5050180;28;20292;-61
2021/12/16 15:55:14;;;;;;;;;;;9.10;99.90;;;;;;5084731;28;19931;-61
2021/12/16 15:57:42;;;;;;;;;;;9.10;99.90;;;;;;5069512;28;19920;-60
2021/12/16 16:00:11;;;;;;;;;;;9.10;99.90;;;;;;5069574;28;19929;-66
2021/12/16 16:02:39;;;;;;;;;;;9.10;99.90;;;;;;5069306;28;20364;-60
2021/12/16 16:05:07;;;;;;;;;;;9.10;99.90;;;;;;5067611;28;19920;-68
2021/12/16 16:07:36;;;;;;;;;;;9.10;99.90;;;;;;5069400;28;20131;-60
2021/12/16 16:10:05;;;;;;;;;;;9.10;99.90;;;;;;5071317;28;19924;-63
2021/12/16 16:12:33;;;;;;;;;;;9.10;99.90;;;;;;5071722;28;19920;-70
2021/12/16 16:15:17;;;;;;;;;;;9.10;99.90;;;;;;5069707;28;19925;-79
2021/12/16 16:18:33;;;;;;;;;;;9.10;99.90;;;;;;5055108;28;20296;-78
2021/12/16 16:20:47;;;;;;;;;;;9.10;99.90;;;;;;5069995;28;20307;-77
2021/12/16 16:23:16;;;;;;;;;;;9.10;99.90;;;;;;5060284;28;20053;-68
2021/12/16 16:25:45;;;;;;;;;;;9.10;99.90;;;;;;5062852;28;19924;-77
2021/12/16 16:28:14;;;;;;;;;;;9.00;99.90;;;;;;5055303;28;20295;-62
2021/12/16 16:30:43;;;;;;;;;;;9.00;99.90;;;;;;5065450;28;19920;-60
2021/12/16 16:33:16;;;;;;;;;;;9.00;99.90;;;;;;5065311;28;19921;-68
2021/12/16 16:35:49;;;;;;;;;;;9.00;99.90;;;;;;5066403;28;20387;-67
2021/12/16 16:38:18;;;;;;;;;;;9.00;99.90;;;;;;5067253;28;19963;-63
2021/12/16 16:40:47;;;;;;;;;;;9.00;99.90;;;;;;5063864;28;19924;-65
2021/12/16 16:43:19;;;;;;;;;;;9.00;99.90;;;;;;5065186;28;19928;-76
2021/12/16 16:45:48;;;;;;;;;;;9.00;99.90;;;;;;5060801;28;19925;-73
2021/12/16 16:48:41;;;;;;;;;;;9.00;99.90;;;;;;5061573;28;19928;-62
2021/12/16 16:51:11;;;;;;;;;;;9.00;99.90;;;;;;5058566;28;19921;-60
2021/12/16 16:53:44;;;;;;;;;;;9.00;99.90;;;;;;5061245;28;20388;-60
2021/12/16 16:56:12;;;;;;;;;;;9.00;99.90;;;;;;5059441;28;20418;-61
2021/12/16 16:58:39;;;;;;;;;;;9.00;99.90;;;;;;5062109;28;19921;-60
2021/12/16 17:01:07;;;;;;;;;;;9.00;99.90;;;;;;5059713;28;20257;-60
2021/12/16 17:03:35;;;;;;;;;;;8.90;99.90;;;;;;5058803;28;19943;-61
2021/12/16 17:06:04;;;;;;;;;;;8.90;99.90;;;;;;5060245;28;19925;-59
2021/12/16 17:08:34;;;;;;;;;;;8.90;99.90;;;;;;5082762;28;20269;-60
2021/12/16 17:11:08;;;;;;;;;;;8.90;99.90;;;;;;5078395;28;19927;-63
2021/12/16 17:14:34;;;;;;;;;;;8.90;99.90;;;;;;5080987;28;19920;-61
2021/12/16 17:19:18;;;;;;;;;;;8.80;99.90;;;;;;5057649;28;19924;-78
2021/12/16 17:21:50;;;;;;;;;;;8.80;99.90;;;;;;5063119;28;19931;-61
2021/12/16 17:24:21;;;;;;;;;;;8.80;99.90;;;;;;5065809;28;19931;-75
2021/12/16 17:26:51;;;;;;;;;;;8.70;99.90;;;;;;5061188;28;19936;-66
2021/12/16 17:29:30;;;;;;;;;;;8.70;99.90;;;;;;5095446;28;20003;-60
2021/12/16 17:32:03;;;;;;;;;;;8.70;99.90;;;;;;5063053;28;20636;-60
2021/12/16 17:34:31;;;;;;;;;;;8.70;99.90;;;;;;5063916;28;20371;-60
2021/12/16 17:37:05;;;;;;;;;;;8.70;99.90;;;;;;5065094;28;19924;-59
2021/12/16 17:39:37;;;;;;;;;;;8.70;99.90;;;;;;5063501;28;20388;-59
2021/12/16 17:42:06;;;;;;;;;;;8.70;99.90;;;;;;5065553;28;19920;-64
2021/12/16 17:44:35;;;;;;;;;;;8.60;99.90;;;;;;5065015;28;20384;-60
2021/12/16 17:47:05;;;;;;;;;;;8.60;99.90;;;;;;5064247;28;20283;-59
2021/12/16 17:49:33;;;;;;;;;;;8.60;99.90;;;;;;5065197;28;19921;-62
2021/12/16 17:52:02;;;;;;;;;;;8.60;99.90;;;;;;5063037;28;20403;-64
2021/12/16 17:54:29;;;;;;;;;;;8.60;99.90;;;;;;5064922;28;19927;-64
2021/12/16 17:56:58;;;;;;;;;;;8.60;99.90;;;;;;5065248;28;19924;-60
2021/12/16 17:59:31;;;;;;;;;;;8.60;99.90;;;;;;5065134;28;19928;-62
2021/12/16 18:01:59;;;;;;;;;;;8.60;99.90;;;;;;5062807;28;19955;-63
2021/12/16 18:04:27;;;;;;;;;;;8.50;99.90;;;;;;5060382;28;19931;-60
2021/12/16 18:06:59;;;;;;;;;;;8.50;99.90;;;;;;5064498;28;19932;-64
2021/12/16 18:09:29;;;;;;;;;;;8.50;99.90;;;;;;5063744;28;19928;-62
2021/12/16 18:12:04;;;;;;;;;;;8.50;99.90;;;;;;5065713;28;20376;-67
2021/12/16 18:14:48;;;;;;;;;;;8.50;99.90;;;;;;5063563;28;19927;-60
2021/12/16 18:17:17;;;;;;;;;;;8.50;99.90;;;;;;5065344;28;19920;-62
2021/12/16 18:19:56;;;;;;;;;;;8.40;99.90;;;;;;5063856;28;19920;-63
2021/12/16 18:22:33;;;;;;;;;;;8.40;99.90;;;;;;5065382;28;19947;-64
2021/12/16 18:25:13;;;;;;;;;;;8.30;99.90;;;;;;5063535;28;19927;-60
2021/12/16 18:27:43;;;;;;;;;;;8.30;99.90;;;;;;5063493;28;19924;-65
2021/12/16 18:30:16;;;;;;;;;;;8.20;99.90;;;;;;5065502;28;19927;-62
2021/12/16 18:32:47;;;;;;;;;;;8.20;99.90;;;;;;5063367;28;19924;-73
2021/12/16 18:35:16;;;;;;;;;;;8.20;99.90;;;;;;5063474;28;19928;-67
2021/12/16 18:37:46;;;;;;;;;;;8.20;99.90;;;;;;5064689;28;19925;-60
2021/12/16 18:40:17;;;;;;;;;;;8.20;99.90;;;;;;5065621;28;19920;-66
2021/12/16 18:42:45;;;;;;;;;;;8.20;99.90;;;;;;5061930;28;19921;-60
2021/12/16 18:45:16;;;;;;;;;;;8.20;99.90;;;;;;5046776;28;19932;-60
2021/12/16 18:47:58;;;;;;;;;;;8.20;99.90;;;;;;5045953;28;20360;-60
2021/12/16 18:50:47;;;;;;;;;;;8.20;99.90;;;;;;5063736;28;19924;-70
2021/12/16 18:55:54;;;;;;;;;;;8.20;99.90;;;;;;5063436;28;20306;-74
2021/12/16 18:58:22;;;;;;;;;;;8.20;99.90;;;;;;5065868;28;19924;-74
2021/12/16 19:00:52;;;;;;;;;;;8.20;99.90;;;;;;5068473;28;20331;-75
2021/12/16 19:03:22;;;;;;;;;;;8.20;99.90;;;;;;5068521;28;20371;-78
2021/12/16 19:05:50;;;;;;;;;;;8.30;99.90;;;;;;5068450;28;19928;-70
2021/12/16 19:08:18;;;;;;;;;;;8.20;99.90;;;;;;5076018;28;20504;-78
2021/12/16 19:10:46;;;;;;;;;;;8.20;99.90;;;;;;5067117;28;19935;-77